sensor_id;sensor_type;location;lat;lon;timestamp;noise_LAeq;noise_LA_min;noise_LA_max;noise_LA01;noise_LA95
72276;Laerm;61204;49.980;8.358;2023-04-01T00:01:03;51.21;44.76;60.20;;
72276;Laerm;61204;49.980;8.358;2023-04-01T00:03:29;52.39;45.69;58.82;;
72276;Laerm;61204;49.980;8.358;2023-04-01T00:06:00;52.32;47.33;63.51;;
72276;Laerm;61204;49.980;8.358;2023-04-01T00:08:27;52.60;46.80;64.35;;
72276;Laerm;61204;49.980;8.358;2023-04-01T00:10:53;52.54;46.48;66.94;;
72276;Laerm;61204;49.980;8.358;2023-04-01T00:13:20;51.16;43.64;63.90;;
72276;Laerm;61204;49.980;8.358;2023-04-01T00:15:46;53.21;46.64;62.47;;
72276;Laerm;61204;49.980;8.358;2023-04-01T00:18:12;52.29;45.36;63.04;;
72276;Laerm;61204;49.980;8.358;2023-04-01T00:20:39;51.94;44.25;63.25;;
72276;Laerm;61204;49.980;8.358;2023-04-01T00:23:07;52.49;44.02;71.95;;
72276;Laerm;61204;49.980;8.358;2023-04-01T00:25:33;52.95;44.67;68.45;;
72276;Laerm;61204;49.980;8.358;2023-04-01T00:27:58;54.29;44.07;72.95;;
72276;Laerm;61204;49.980;8.358;2023-04-01T00:30:24;50.27;43.95;72.19;;
72276;Laerm;61204;49.980;8.358;2023-04-01T00:32:53;52.67;46.47;68.64;;
72276;Laerm;61204;49.980;8.358;2023-04-01T00:35:21;56.52;44.36;76.66;;
72276;Laerm;61204;49.980;8.358;2023-04-01T00:37:48;52.67;43.46;81.73;;
72276;Laerm;61204;49.980;8.358;2023-04-01T00:42:55;56.16;44.94;76.01;;
72276;Laerm;61204;49.980;8.358;2023-04-01T00:45:42;53.15;43.53;72.23;;
72276;Laerm;61204;49.980;8.358;2023-04-01T00:48:18;54.63;45.16;73.62;;
72276;Laerm;61204;49.980;8.358;2023-04-01T00:50:55;52.98;42.68;71.37;;
72276;Laerm;61204;49.980;8.358;2023-04-01T00:53:23;54.19;43.86;75.13;;
72276;Laerm;61204;49.980;8.358;2023-04-01T00:55:56;58.99;43.46;78.04;;
72276;Laerm;61204;49.980;8.358;2023-04-01T00:58:27;58.40;44.70;75.45;;
72276;Laerm;61204;49.980;8.358;2023-04-01T01:00:55;60.68;46.64;79.86;;
72276;Laerm;61204;49.980;8.358;2023-04-01T01:03:23;55.33;43.88;72.68;;
72276;Laerm;61204;49.980;8.358;2023-04-01T01:06:08;54.19;42.67;75.67;;
72276;Laerm;61204;49.980;8.358;2023-04-01T01:08:51;61.07;43.38;77.28;;
72276;Laerm;61204;49.980;8.358;2023-04-01T01:11:29;62.84;46.73;82.14;;
72276;Laerm;61204;49.980;8.358;2023-04-01T01:16:44;59.18;45.00;78.37;;
72276;Laerm;61204;49.980;8.358;2023-04-01T01:19:47;55.84;44.93;77.96;;
72276;Laerm;61204;49.980;8.358;2023-04-01T01:25:28;55.39;46.54;72.38;;
72276;Laerm;61204;49.980;8.358;2023-04-01T01:29:11;53.38;44.78;75.60;;
72276;Laerm;61204;49.980;8.358;2023-04-01T01:37:45;52.62;46.59;67.54;;
72276;Laerm;61204;49.980;8.358;2023-04-01T01:40:13;49.77;42.46;64.66;;
72276;Laerm;61204;49.980;8.358;2023-04-01T01:42:48;51.48;42.36;63.96;;
72276;Laerm;61204;49.980;8.358;2023-04-01T01:45:20;54.41;44.06;75.56;;
72276;Laerm;61204;49.980;8.358;2023-04-01T01:47:49;56.24;45.09;75.15;;
72276;Laerm;61204;49.980;8.358;2023-04-01T01:50:18;53.17;44.63;68.96;;
72276;Laerm;61204;49.980;8.358;2023-04-01T01:52:46;55.70;43.57;80.08;;
72276;Laerm;61204;49.980;8.358;2023-04-01T01:58:02;53.01;45.93;68.01;;
72276;Laerm;61204;49.980;8.358;2023-04-01T02:00:33;51.66;43.83;67.16;;
72276;Laerm;61204;49.980;8.358;2023-04-01T02:03:00;52.21;44.26;65.71;;
72276;Laerm;61204;49.980;8.358;2023-04-01T02:05:30;55.94;45.59;74.39;;
72276;Laerm;61204;49.980;8.358;2023-04-01T02:08:21;60.80;45.30;80.99;;
72276;Laerm;61204;49.980;8.358;2023-04-01T02:10:58;60.07;46.57;77.13;;
72276;Laerm;61204;49.980;8.358;2023-04-01T02:13:43;63.04;47.36;82.48;;
72276;Laerm;61204;49.980;8.358;2023-04-01T02:16:30;51.47;43.10;68.10;;
72276;Laerm;61204;49.980;8.358;2023-04-01T02:18:59;57.21;46.16;76.35;;
72276;Laerm;61204;49.980;8.358;2023-04-01T02:21:30;60.16;46.79;80.48;;
72276;Laerm;61204;49.980;8.358;2023-04-01T02:23:57;61.34;47.26;85.80;;
72276;Laerm;61204;49.980;8.358;2023-04-01T02:26:25;63.44;46.16;85.24;;
72276;Laerm;61204;49.980;8.358;2023-04-01T02:28:54;59.42;46.09;80.66;;
72276;Laerm;61204;49.980;8.358;2023-04-01T02:31:21;62.08;45.95;86.48;;
72276;Laerm;61204;49.980;8.358;2023-04-01T02:33:51;58.21;46.25;79.87;;
72276;Laerm;61204;49.980;8.358;2023-04-01T02:36:17;59.95;45.70;77.82;;
72276;Laerm;61204;49.980;8.358;2023-04-01T02:38:45;55.64;47.38;75.15;;
72276;Laerm;61204;49.980;8.358;2023-04-01T02:41:12;64.09;45.40;83.23;;
72276;Laerm;61204;49.980;8.358;2023-04-01T02:43:37;62.29;44.82;83.76;;
72276;Laerm;61204;49.980;8.358;2023-04-01T02:46:03;53.96;47.17;65.87;;
72276;Laerm;61204;49.980;8.358;2023-04-01T02:48:29;53.48;46.83;69.23;;
72276;Laerm;61204;49.980;8.358;2023-04-01T02:50:55;59.70;46.44;83.06;;
72276;Laerm;61204;49.980;8.358;2023-04-01T02:53:21;59.16;44.11;79.85;;
72276;Laerm;61204;49.980;8.358;2023-04-01T02:55:47;59.02;45.80;77.50;;
72276;Laerm;61204;49.980;8.358;2023-04-01T02:58:15;54.69;47.18;74.15;;
72276;Laerm;61204;49.980;8.358;2023-04-01T03:00:41;55.27;47.84;69.31;;
72276;Laerm;61204;49.980;8.358;2023-04-01T03:03:07;60.09;46.04;80.70;;
72276;Laerm;61204;49.980;8.358;2023-04-01T03:05:32;52.23;45.01;70.61;;
72276;Laerm;61204;49.980;8.358;2023-04-01T03:07:58;52.02;47.34;57.28;;
72276;Laerm;61204;49.980;8.358;2023-04-01T03:10:23;54.20;46.53;69.44;;
72276;Laerm;61204;49.980;8.358;2023-04-01T03:12:49;57.34;47.64;76.10;;
72276;Laerm;61204;49.980;8.358;2023-04-01T03:15:15;52.54;46.48;65.65;;
72276;Laerm;61204;49.980;8.358;2023-04-01T03:17:41;53.47;47.54;71.32;;
72276;Laerm;61204;49.980;8.358;2023-04-01T03:20:09;52.99;47.22;65.68;;
72276;Laerm;61204;49.980;8.358;2023-04-01T03:22:36;54.43;48.89;62.96;;
72276;Laerm;61204;49.980;8.358;2023-04-01T03:25:04;55.48;48.28;70.85;;
72276;Laerm;61204;49.980;8.358;2023-04-01T03:27:30;53.03;48.41;61.53;;
72276;Laerm;61204;49.980;8.358;2023-04-01T03:29:58;54.11;48.16;66.04;;
72276;Laerm;61204;49.980;8.358;2023-04-01T03:32:23;54.42;48.62;65.70;;
72276;Laerm;61204;49.980;8.358;2023-04-01T03:34:52;51.83;46.28;67.85;;
72276;Laerm;61204;49.980;8.358;2023-04-01T03:37:17;53.08;47.44;63.55;;
72276;Laerm;61204;49.980;8.358;2023-04-01T03:39:43;54.86;46.57;75.52;;
72276;Laerm;61204;49.980;8.358;2023-04-01T03:42:08;54.05;47.58;70.04;;
72276;Laerm;61204;49.980;8.358;2023-04-01T03:44:36;53.55;47.81;63.12;;
72276;Laerm;61204;49.980;8.358;2023-04-01T03:47:04;53.24;46.71;72.38;;
72276;Laerm;61204;49.980;8.358;2023-04-01T03:49:29;53.85;48.74;62.24;;
72276;Laerm;61204;49.980;8.358;2023-04-01T03:51:57;54.22;49.09;64.24;;
72276;Laerm;61204;49.980;8.358;2023-04-01T03:54:23;54.88;48.18;64.88;;
72276;Laerm;61204;49.980;8.358;2023-04-01T03:56:48;53.27;47.19;71.82;;
72276;Laerm;61204;49.980;8.358;2023-04-01T03:59:14;54.65;48.05;65.97;;
72276;Laerm;61204;49.980;8.358;2023-04-01T04:01:39;55.42;48.14;70.34;;
72276;Laerm;61204;49.980;8.358;2023-04-01T04:04:05;55.38;48.73;65.71;;
72276;Laerm;61204;49.980;8.358;2023-04-01T04:06:33;54.60;47.90;69.50;;
72276;Laerm;61204;49.980;8.358;2023-04-01T04:08:59;54.54;49.10;65.25;;
72276;Laerm;61204;49.980;8.358;2023-04-01T04:11:24;55.78;47.15;68.69;;
72276;Laerm;61204;49.980;8.358;2023-04-01T04:13:51;58.68;48.20;71.24;;
72276;Laerm;61204;49.980;8.358;2023-04-01T04:16:17;60.96;49.65;83.38;;
72276;Laerm;61204;49.980;8.358;2023-04-01T04:18:43;59.79;48.53;81.58;;
72276;Laerm;61204;49.980;8.358;2023-04-01T04:21:13;58.34;49.32;73.11;;
72276;Laerm;61204;49.980;8.358;2023-04-01T04:23:39;58.80;49.34;71.16;;
72276;Laerm;61204;49.980;8.358;2023-04-01T04:26:08;59.91;48.63;71.25;;
72276;Laerm;61204;49.980;8.358;2023-04-01T04:28:34;60.78;50.27;71.01;;
72276;Laerm;61204;49.980;8.358;2023-04-01T04:31:01;59.45;50.57;70.26;;
72276;Laerm;61204;49.980;8.358;2023-04-01T04:33:27;61.17;50.77;74.25;;
72276;Laerm;61204;49.980;8.358;2023-04-01T04:35:57;58.64;50.64;69.09;;
72276;Laerm;61204;49.980;8.358;2023-04-01T04:38:23;57.80;50.82;68.57;;
72276;Laerm;61204;49.980;8.358;2023-04-01T04:40:51;57.50;50.13;66.11;;
72276;Laerm;61204;49.980;8.358;2023-04-01T04:43:18;57.66;50.56;68.36;;
72276;Laerm;61204;49.980;8.358;2023-04-01T04:45:44;57.17;50.95;67.27;;
72276;Laerm;61204;49.980;8.358;2023-04-01T04:48:12;56.51;49.83;71.30;;
72276;Laerm;61204;49.980;8.358;2023-04-01T04:50:43;57.61;50.74;75.33;;
72276;Laerm;61204;49.980;8.358;2023-04-01T04:53:12;57.05;50.43;72.99;;
72276;Laerm;61204;49.980;8.358;2023-04-01T04:55:47;56.97;52.15;66.67;;
72276;Laerm;61204;49.980;8.358;2023-04-01T04:58:13;56.54;50.07;68.23;;
72276;Laerm;61204;49.980;8.358;2023-04-01T05:00:39;57.07;50.94;73.06;;
72276;Laerm;61204;49.980;8.358;2023-04-01T05:03:04;56.96;50.40;69.79;;
72276;Laerm;61204;49.980;8.358;2023-04-01T05:05:30;61.91;51.53;79.10;;
72276;Laerm;61204;49.980;8.358;2023-04-01T05:07:55;58.63;51.57;79.61;;
72276;Laerm;61204;49.980;8.358;2023-04-01T05:10:21;58.38;51.51;71.40;;
72276;Laerm;61204;49.980;8.358;2023-04-01T05:12:46;61.14;51.46;84.20;;
72276;Laerm;61204;49.980;8.358;2023-04-01T05:15:12;57.86;52.79;66.84;;
72276;Laerm;61204;49.980;8.358;2023-04-01T05:17:37;57.38;50.57;70.64;;
72276;Laerm;61204;49.980;8.358;2023-04-01T05:20:03;58.12;50.44;77.23;;
72276;Laerm;61204;49.980;8.358;2023-04-01T05:22:29;55.14;50.81;63.19;;
72276;Laerm;61204;49.980;8.358;2023-04-01T05:24:55;58.62;51.96;72.54;;
72276;Laerm;61204;49.980;8.358;2023-04-01T05:27:20;62.37;52.60;80.28;;
72276;Laerm;61204;49.980;8.358;2023-04-01T05:29:46;57.10;51.77;70.82;;
72276;Laerm;61204;49.980;8.358;2023-04-01T05:32:11;58.12;51.17;73.10;;
72276;Laerm;61204;49.980;8.358;2023-04-01T05:34:37;58.58;52.62;76.06;;
72276;Laerm;61204;49.980;8.358;2023-04-01T05:37:02;57.44;52.24;70.67;;
72276;Laerm;61204;49.980;8.358;2023-04-01T05:39:27;57.19;50.92;76.10;;
72276;Laerm;61204;49.980;8.358;2023-04-01T05:41:53;56.74;51.30;71.75;;
72276;Laerm;61204;49.980;8.358;2023-04-01T05:44:19;56.87;51.90;69.08;;
72276;Laerm;61204;49.980;8.358;2023-04-01T05:46:44;56.43;51.44;64.06;;
72276;Laerm;61204;49.980;8.358;2023-04-01T05:49:12;56.73;51.44;71.03;;
72276;Laerm;61204;49.980;8.358;2023-04-01T05:51:37;56.04;51.26;65.85;;
72276;Laerm;61204;49.980;8.358;2023-04-01T05:54:05;58.78;52.26;77.85;;
72276;Laerm;61204;49.980;8.358;2023-04-01T05:56:30;58.05;53.34;70.13;;
72276;Laerm;61204;49.980;8.358;2023-04-01T05:58:56;58.43;51.17;72.20;;
72276;Laerm;61204;49.980;8.358;2023-04-01T06:01:21;56.02;50.33;66.49;;
72276;Laerm;61204;49.980;8.358;2023-04-01T06:03:47;57.86;50.47;69.79;;
72276;Laerm;61204;49.980;8.358;2023-04-01T06:06:24;55.68;50.61;68.31;;
72276;Laerm;61204;49.980;8.358;2023-04-01T06:08:52;58.13;52.16;73.25;;
72276;Laerm;61204;49.980;8.358;2023-04-01T06:14:23;57.49;50.12;68.20;;
72276;Laerm;61204;49.980;8.358;2023-04-01T06:19:50;56.91;51.26;64.98;;
72276;Laerm;61204;49.980;8.358;2023-04-01T06:47:27;57.96;52.34;68.23;;
72276;Laerm;61204;49.980;8.358;2023-04-01T06:53:11;56.50;51.61;66.99;;
72276;Laerm;61204;49.980;8.358;2023-04-01T06:55:57;57.88;52.12;74.88;;
72276;Laerm;61204;49.980;8.358;2023-04-01T06:58:37;59.56;50.82;77.94;;
72276;Laerm;61204;49.980;8.358;2023-04-01T07:01:12;57.38;52.63;70.80;;
72276;Laerm;61204;49.980;8.358;2023-04-01T07:03:51;58.82;52.29;76.61;;
72276;Laerm;61204;49.980;8.358;2023-04-01T07:06:32;60.25;50.74;80.73;;
72276;Laerm;61204;49.980;8.358;2023-04-01T07:09:06;61.63;51.67;81.40;;
72276;Laerm;61204;49.980;8.358;2023-04-01T07:11:37;60.28;50.54;80.74;;
72276;Laerm;61204;49.980;8.358;2023-04-01T07:14:19;57.90;52.61;71.57;;
72276;Laerm;61204;49.980;8.358;2023-04-01T07:16:54;56.59;51.88;68.81;;
72276;Laerm;61204;49.980;8.358;2023-04-01T07:19:33;61.07;52.34;84.44;;
72276;Laerm;61204;49.980;8.358;2023-04-01T07:22:17;57.00;51.50;72.78;;
72276;Laerm;61204;49.980;8.358;2023-04-01T07:24:47;57.89;51.40;75.58;;
72276;Laerm;61204;49.980;8.358;2023-04-01T07:27:14;58.23;52.43;71.67;;
72276;Laerm;61204;49.980;8.358;2023-04-01T07:29:40;60.73;53.23;75.95;;
72276;Laerm;61204;49.980;8.358;2023-04-01T07:32:39;62.99;51.63;81.81;;
72276;Laerm;61204;49.980;8.358;2023-04-01T07:35:46;60.71;53.21;81.62;;
72276;Laerm;61204;49.980;8.358;2023-04-01T07:45:01;60.44;52.85;78.40;;
72276;Laerm;61204;49.980;8.358;2023-04-01T07:50:13;62.23;52.27;82.31;;
72276;Laerm;61204;49.980;8.358;2023-04-01T07:58:45;64.06;52.19;82.98;;
72276;Laerm;61204;49.980;8.358;2023-04-01T08:07:36;58.55;52.68;78.10;;
72276;Laerm;61204;49.980;8.358;2023-04-01T08:10:25;58.42;52.46;77.76;;
72276;Laerm;61204;49.980;8.358;2023-04-01T08:16:45;61.83;53.30;79.77;;
72276;Laerm;61204;49.980;8.358;2023-04-01T08:22:16;61.65;52.26;80.58;;
72276;Laerm;61204;49.980;8.358;2023-04-01T08:24:49;62.75;51.85;80.19;;
72276;Laerm;61204;49.980;8.358;2023-04-01T08:32:32;58.40;52.95;71.13;;
72276;Laerm;61204;49.980;8.358;2023-04-01T08:35:21;57.47;52.77;70.15;;
72276;Laerm;61204;49.980;8.358;2023-04-01T08:37:55;57.81;52.36;66.95;;
72276;Laerm;61204;49.980;8.358;2023-04-01T08:41:00;60.60;53.37;77.49;;
72276;Laerm;61204;49.980;8.358;2023-04-01T08:52:45;58.25;53.74;72.28;;
72276;Laerm;61204;49.980;8.358;2023-04-01T08:55:36;59.57;54.25;74.96;;
72276;Laerm;61204;49.980;8.358;2023-04-01T08:59:00;58.48;52.10;73.17;;
72276;Laerm;61204;49.980;8.358;2023-04-01T09:13:15;61.22;52.25;80.08;;
72276;Laerm;61204;49.980;8.358;2023-04-01T09:16:23;59.74;51.43;80.86;;
72276;Laerm;61204;49.980;8.358;2023-04-01T09:19:31;58.08;53.06;68.07;;
72276;Laerm;61204;49.980;8.358;2023-04-01T09:25:34;59.09;49.27;74.78;;
72276;Laerm;61204;49.980;8.358;2023-04-01T09:28:18;57.00;49.22;73.71;;
72276;Laerm;61204;49.980;8.358;2023-04-01T09:34:00;56.02;50.71;70.93;;
72276;Laerm;61204;49.980;8.358;2023-04-01T09:45:01;57.18;49.12;74.90;;
72276;Laerm;61204;49.980;8.358;2023-04-01T09:51:06;54.52;46.20;67.66;;
72276;Laerm;61204;49.980;8.358;2023-04-01T10:04:27;54.57;48.91;67.29;;
72276;Laerm;61204;49.980;8.358;2023-04-01T10:15:33;54.36;48.33;68.96;;
72276;Laerm;61204;49.980;8.358;2023-04-01T10:18:40;54.51;48.23;66.89;;
72276;Laerm;61204;49.980;8.358;2023-04-01T10:32:58;55.97;49.09;75.90;;
72276;Laerm;61204;49.980;8.358;2023-04-01T10:41:52;55.74;49.13;70.53;;
72276;Laerm;61204;49.980;8.358;2023-04-01T11:14:52;56.34;49.38;70.52;;
72276;Laerm;61204;49.980;8.358;2023-04-01T11:32:29;55.58;48.00;69.07;;
72276;Laerm;61204;49.980;8.358;2023-04-01T11:35:29;55.78;49.22;75.20;;
72276;Laerm;61204;49.980;8.358;2023-04-01T11:41:30;54.27;49.58;63.44;;
72276;Laerm;61204;49.980;8.358;2023-04-01T11:44:17;54.96;50.49;69.12;;
72276;Laerm;61204;49.980;8.358;2023-04-01T11:46:49;56.77;50.26;71.91;;
72276;Laerm;61204;49.980;8.358;2023-04-01T11:52:24;58.64;53.01;77.15;;
72276;Laerm;61204;49.980;8.358;2023-04-01T11:55:19;59.66;52.76;78.60;;
72276;Laerm;61204;49.980;8.358;2023-04-01T12:10:46;57.84;52.53;73.56;;
72276;Laerm;61204;49.980;8.358;2023-04-01T12:13:40;58.07;51.86;77.78;;
72276;Laerm;61204;49.980;8.358;2023-04-01T12:19:26;57.49;52.64;64.00;;
72276;Laerm;61204;49.980;8.358;2023-04-01T12:25:15;57.27;53.50;63.90;;
72276;Laerm;61204;49.980;8.358;2023-04-01T12:30:52;58.21;52.89;71.09;;
72276;Laerm;61204;49.980;8.358;2023-04-01T12:33:51;58.03;53.33;69.86;;
72276;Laerm;61204;49.980;8.358;2023-04-01T12:36:37;57.04;50.93;69.21;;
72276;Laerm;61204;49.980;8.358;2023-04-01T12:45:35;57.26;52.43;73.19;;
72276;Laerm;61204;49.980;8.358;2023-04-01T12:51:39;62.98;54.55;83.30;;
72276;Laerm;61204;49.980;8.358;2023-04-01T12:54:48;61.31;53.36;80.49;;
72276;Laerm;61204;49.980;8.358;2023-04-01T12:57:49;59.59;54.08;78.61;;
72276;Laerm;61204;49.980;8.358;2023-04-01T13:18:25;58.25;53.56;72.22;;
72276;Laerm;61204;49.980;8.358;2023-04-01T13:24:03;58.92;53.27;73.46;;
72276;Laerm;61204;49.980;8.358;2023-04-01T13:27:06;59.74;52.68;80.51;;
72276;Laerm;61204;49.980;8.358;2023-04-01T13:30:18;59.27;52.99;76.65;;
72276;Laerm;61204;49.980;8.358;2023-04-01T13:36:07;59.63;52.93;76.21;;
72276;Laerm;61204;49.980;8.358;2023-04-01T13:47:17;58.57;53.66;69.33;;
72276;Laerm;61204;49.980;8.358;2023-04-01T14:01:52;60.86;52.46;76.57;;
72276;Laerm;61204;49.980;8.358;2023-04-01T14:07:58;62.17;52.93;81.95;;
72276;Laerm;61204;49.980;8.358;2023-04-01T14:10:43;64.42;53.01;80.50;;
72276;Laerm;61204;49.980;8.358;2023-04-01T14:13:53;62.69;52.57;79.16;;
72276;Laerm;61204;49.980;8.358;2023-04-01T14:25:58;62.06;51.31;81.30;;
72276;Laerm;61204;49.980;8.358;2023-04-01T14:42:59;57.87;51.07;73.08;;
72276;Laerm;61204;49.980;8.358;2023-04-01T14:45:59;57.61;50.76;71.90;;
72276;Laerm;61204;49.980;8.358;2023-04-01T14:48:53;56.62;51.08;68.47;;
72276;Laerm;61204;49.980;8.358;2023-04-01T14:51:40;65.51;51.31;87.04;;
72276;Laerm;61204;49.980;8.358;2023-04-01T14:54:15;56.55;50.54;69.86;;
72276;Laerm;61204;49.980;8.358;2023-04-01T14:56:51;56.31;51.71;70.25;;
72276;Laerm;61204;49.980;8.358;2023-04-01T14:59:28;59.46;51.96;79.93;;
72276;Laerm;61204;49.980;8.358;2023-04-01T15:02:18;57.37;50.91;75.14;;
72276;Laerm;61204;49.980;8.358;2023-04-01T15:14:30;57.34;51.90;68.91;;
72276;Laerm;61204;49.980;8.358;2023-04-01T15:31:01;58.37;49.84;76.68;;
72276;Laerm;61204;49.980;8.358;2023-04-01T15:34:40;57.47;51.56;73.99;;
72276;Laerm;61204;49.980;8.358;2023-04-01T15:37:02;58.54;49.95;77.60;;
72276;Laerm;61204;49.980;8.358;2023-04-01T16:00:23;64.98;52.09;83.68;;
72276;Laerm;61204;49.980;8.358;2023-04-01T16:03:38;61.78;50.90;80.28;;
72276;Laerm;61204;49.980;8.358;2023-04-01T16:09:35;60.78;51.07;78.97;;
72276;Laerm;61204;49.980;8.358;2023-04-01T16:15:52;58.73;52.26;76.43;;
72276;Laerm;61204;49.980;8.358;2023-04-01T16:21:41;58.17;52.35;77.16;;
72276;Laerm;61204;49.980;8.358;2023-04-01T16:24:17;56.34;50.53;72.59;;
72276;Laerm;61204;49.980;8.358;2023-04-01T16:27:40;57.90;50.97;71.37;;
72276;Laerm;61204;49.980;8.358;2023-04-01T16:30:22;59.42;51.95;75.76;;
72276;Laerm;61204;49.980;8.358;2023-04-01T16:33:07;59.06;52.63;75.51;;
72276;Laerm;61204;49.980;8.358;2023-04-01T16:35:46;56.01;50.64;68.21;;
72276;Laerm;61204;49.980;8.358;2023-04-01T16:41:20;56.12;50.03;69.12;;
72276;Laerm;61204;49.980;8.358;2023-04-01T16:43:56;56.41;50.21;69.70;;
72276;Laerm;61204;49.980;8.358;2023-04-01T16:46:39;60.01;51.34;76.40;;
72276;Laerm;61204;49.980;8.358;2023-04-01T16:57:18;56.46;50.66;71.34;;
72276;Laerm;61204;49.980;8.358;2023-04-01T17:02:26;56.45;51.71;71.26;;
72276;Laerm;61204;49.980;8.358;2023-04-01T17:05:09;57.77;51.08;78.49;;
72276;Laerm;61204;49.980;8.358;2023-04-01T17:07:48;58.09;50.86;74.49;;
72276;Laerm;61204;49.980;8.358;2023-04-01T17:11:00;56.88;50.06;74.36;;
72276;Laerm;61204;49.980;8.358;2023-04-01T17:19:21;55.05;50.31;66.47;;
72276;Laerm;61204;49.980;8.358;2023-04-01T17:22:17;57.64;49.56;78.06;;
72276;Laerm;61204;49.980;8.358;2023-04-01T17:25:32;54.99;49.25;67.87;;
72276;Laerm;61204;49.980;8.358;2023-04-01T17:28:24;55.93;48.83;70.77;;
72276;Laerm;61204;49.980;8.358;2023-04-01T17:33:46;56.55;51.07;75.04;;
72276;Laerm;61204;49.980;8.358;2023-04-01T17:37:09;55.21;49.83;61.00;;
72276;Laerm;61204;49.980;8.358;2023-04-01T17:39:54;54.37;48.22;66.21;;
72276;Laerm;61204;49.980;8.358;2023-04-01T17:42:41;53.95;48.54;68.35;;
72276;Laerm;61204;49.980;8.358;2023-04-01T17:45:16;59.37;47.95;74.30;;
72276;Laerm;61204;49.980;8.358;2023-04-01T17:48:01;53.75;47.34;66.16;;
72276;Laerm;61204;49.980;8.358;2023-04-01T17:59:38;52.85;48.33;62.91;;
72276;Laerm;61204;49.980;8.358;2023-04-01T18:05:52;55.46;47.34;71.43;;
72276;Laerm;61204;49.980;8.358;2023-04-01T18:20:36;53.82;48.89;66.92;;
72276;Laerm;61204;49.980;8.358;2023-04-01T18:23:19;54.15;47.47;67.89;;
72276;Laerm;61204;49.980;8.358;2023-04-01T18:25:53;53.20;47.85;64.73;;
72276;Laerm;61204;49.980;8.358;2023-04-01T18:31:20;54.00;47.80;66.12;;
72276;Laerm;61204;49.980;8.358;2023-04-01T18:34:06;53.69;48.18;62.59;;
72276;Laerm;61204;49.980;8.358;2023-04-01T18:36:47;53.66;48.22;66.74;;
72276;Laerm;61204;49.980;8.358;2023-04-01T18:39:35;54.56;48.30;64.10;;
72276;Laerm;61204;49.980;8.358;2023-04-01T18:45:27;52.56;47.10;63.79;;
72276;Laerm;61204;49.980;8.358;2023-04-01T18:48:33;52.35;47.19;59.63;;
72276;Laerm;61204;49.980;8.358;2023-04-01T18:51:16;52.73;47.92;60.04;;
72276;Laerm;61204;49.980;8.358;2023-04-01T18:56:39;53.27;47.61;61.68;;
72276;Laerm;61204;49.980;8.358;2023-04-01T18:59:39;53.41;48.19;61.36;;
72276;Laerm;61204;49.980;8.358;2023-04-01T19:02:28;53.91;48.35;60.74;;
72276;Laerm;61204;49.980;8.358;2023-04-01T19:07:50;54.84;49.68;68.12;;
72276;Laerm;61204;49.980;8.358;2023-04-01T19:18:55;52.93;48.83;59.94;;
72276;Laerm;61204;49.980;8.358;2023-04-01T19:27:37;53.61;48.67;62.35;;
72276;Laerm;61204;49.980;8.358;2023-04-01T19:30:40;53.25;47.99;59.09;;
72276;Laerm;61204;49.980;8.358;2023-04-01T19:36:11;52.66;48.41;58.54;;
72276;Laerm;61204;49.980;8.358;2023-04-01T19:38:52;54.78;48.24;65.73;;
72276;Laerm;61204;49.980;8.358;2023-04-01T19:41:39;51.83;46.47;58.37;;
72276;Laerm;61204;49.980;8.358;2023-04-01T19:44:53;55.23;49.07;67.76;;
72276;Laerm;61204;49.980;8.358;2023-04-01T19:47:47;53.07;47.87;59.94;;
72276;Laerm;61204;49.980;8.358;2023-04-01T19:50:38;52.40;46.72;59.54;;
72276;Laerm;61204;49.980;8.358;2023-04-01T19:53:31;52.46;47.59;58.63;;
72276;Laerm;61204;49.980;8.358;2023-04-01T19:56:35;52.75;47.50;58.82;;
72276;Laerm;61204;49.980;8.358;2023-04-01T20:04:49;53.54;48.71;65.22;;
72276;Laerm;61204;49.980;8.358;2023-04-01T20:07:36;53.41;47.88;59.55;;
72276;Laerm;61204;49.980;8.358;2023-04-01T20:10:39;54.02;48.09;66.25;;
72276;Laerm;61204;49.980;8.358;2023-04-01T20:16:06;53.17;47.58;67.53;;
72276;Laerm;61204;49.980;8.358;2023-04-01T20:18:55;54.01;47.50;65.99;;
72276;Laerm;61204;49.980;8.358;2023-04-01T20:21:35;54.20;48.23;66.47;;
72276;Laerm;61204;49.980;8.358;2023-04-01T20:24:21;53.40;47.99;62.40;;
72276;Laerm;61204;49.980;8.358;2023-04-01T20:32:33;52.49;47.71;66.47;;
72276;Laerm;61204;49.980;8.358;2023-04-01T20:37:47;51.93;46.77;59.67;;
72276;Laerm;61204;49.980;8.358;2023-04-01T20:40:41;51.99;47.51;63.75;;
72276;Laerm;61204;49.980;8.358;2023-04-01T20:43:39;52.59;45.88;67.20;;
72276;Laerm;61204;49.980;8.358;2023-04-01T20:46:20;50.80;46.75;57.78;;
72276;Laerm;61204;49.980;8.358;2023-04-01T21:00:34;51.70;46.92;67.19;;
72276;Laerm;61204;49.980;8.358;2023-04-01T21:03:24;51.77;46.58;58.93;;
72276;Laerm;61204;49.980;8.358;2023-04-01T21:15:22;54.15;47.59;70.48;;
72276;Laerm;61204;49.980;8.358;2023-04-01T21:17:56;54.72;47.03;72.76;;
72276;Laerm;61204;49.980;8.358;2023-04-01T21:27:01;53.24;48.56;61.78;;
72276;Laerm;61204;49.980;8.358;2023-04-01T21:29:53;52.98;45.01;70.78;;
72276;Laerm;61204;49.980;8.358;2023-04-01T21:46:47;55.24;44.97;67.02;;
72276;Laerm;61204;49.980;8.358;2023-04-01T21:49:44;52.72;46.15;62.50;;
72276;Laerm;61204;49.980;8.358;2023-04-01T22:10:42;50.07;43.55;62.73;;
72276;Laerm;61204;49.980;8.358;2023-04-01T22:13:24;50.44;44.96;62.79;;
72276;Laerm;61204;49.980;8.358;2023-04-01T22:18:47;51.82;46.07;65.22;;
72276;Laerm;61204;49.980;8.358;2023-04-01T22:27:18;49.56;42.89;60.94;;
72276;Laerm;61204;49.980;8.358;2023-04-01T22:30:17;49.61;44.21;60.50;;
72276;Laerm;61204;49.980;8.358;2023-04-01T22:32:57;48.77;42.17;63.49;;
72276;Laerm;61204;49.980;8.358;2023-04-01T22:39:14;48.67;43.38;58.44;;
72276;Laerm;61204;49.980;8.358;2023-04-01T22:42:24;48.39;43.68;69.61;;
72276;Laerm;61204;49.980;8.358;2023-04-01T22:51:38;46.69;41.77;52.75;;
72276;Laerm;61204;49.980;8.358;2023-04-01T22:54:19;46.25;42.17;52.81;;
72276;Laerm;61204;49.980;8.358;2023-04-01T22:59:52;47.22;40.51;59.63;;
72276;Laerm;61204;49.980;8.358;2023-04-01T23:02:33;46.69;41.99;55.21;;
72276;Laerm;61204;49.980;8.358;2023-04-01T23:05:05;46.24;40.06;57.18;;
72276;Laerm;61204;49.980;8.358;2023-04-01T23:07:45;44.85;40.91;56.17;;
72276;Laerm;61204;49.980;8.358;2023-04-01T23:12:52;46.73;40.40;58.90;;
72276;Laerm;61204;49.980;8.358;2023-04-01T23:15:20;46.09;41.27;55.33;;
72276;Laerm;61204;49.980;8.358;2023-04-01T23:18:14;43.32;38.82;49.75;;
72276;Laerm;61204;49.980;8.358;2023-04-01T23:23:48;50.58;41.30;61.63;;
72276;Laerm;61204;49.980;8.358;2023-04-01T23:27:11;46.92;41.30;55.50;;
72276;Laerm;61204;49.980;8.358;2023-04-01T23:29:39;46.32;40.52;53.26;;
72276;Laerm;61204;49.980;8.358;2023-04-01T23:32:14;45.50;40.94;51.37;;
72276;Laerm;61204;49.980;8.358;2023-04-01T23:34:50;46.23;39.75;52.18;;
72276;Laerm;61204;49.980;8.358;2023-04-01T23:37:18;44.93;38.23;55.58;;
72276;Laerm;61204;49.980;8.358;2023-04-01T23:39:52;47.73;41.60;58.20;;
72276;Laerm;61204;49.980;8.358;2023-04-01T23:42:38;47.80;39.64;61.23;;
72276;Laerm;61204;49.980;8.358;2023-04-01T23:45:15;46.12;40.98;58.73;;
72276;Laerm;61204;49.980;8.358;2023-04-01T23:47:48;47.54;41.19;58.89;;
72276;Laerm;61204;49.980;8.358;2023-04-01T23:50:23;45.16;40.43;53.89;;
72276;Laerm;61204;49.980;8.358;2023-04-01T23:52:59;48.11;41.09;59.37;;